sensor_id;sensor_type;location;lat;lon;timestamp;P1;durP1;ratioP1;P2;durP2;ratioP2
39452;SDS011;25154;-33.684;151.102;2022-08-19T00:01:40;0.80;;;0.80;;
39452;SDS011;25154;-33.684;151.102;2022-08-19T00:06:45;0.75;;;0.60;;
39452;SDS011;25154;-33.684;151.102;2022-08-19T00:11:48;1.42;;;0.75;;
39452;SDS011;25154;-33.684;151.102;2022-08-19T00:16:53;1.23;;;0.68;;
39452;SDS011;25154;-33.684;151.102;2022-08-19T00:21:55;1.80;;;1.42;;
39452;SDS011;25154;-33.684;151.102;2022-08-19T00:26:58;1.55;;;0.70;;
39452;SDS011;25154;-33.684;151.102;2022-08-19T00:32:02;0.93;;;0.60;;
39452;SDS011;25154;-33.684;151.102;2022-08-19T00:37:05;2.17;;;0.85;;
39452;SDS011;25154;-33.684;151.102;2022-08-19T00:42:07;1.77;;;0.88;;
39452;SDS011;25154;-33.684;151.102;2022-08-19T00:47:09;1.50;;;0.85;;
39452;SDS011;25154;-33.684;151.102;2022-08-19T00:52:16;0.95;;;0.70;;
39452;SDS011;25154;-33.684;151.102;2022-08-19T00:57:28;1.48;;;0.88;;
39452;SDS011;25154;-33.684;151.102;2022-08-19T01:02:37;1.20;;;0.80;;
39452;SDS011;25154;-33.684;151.102;2022-08-19T01:07:41;3.30;;;1.00;;
39452;SDS011;25154;-33.684;151.102;2022-08-19T01:12:44;3.20;;;1.10;;
39452;SDS011;25154;-33.684;151.102;2022-08-19T01:17:48;2.40;;;1.02;;
39452;SDS011;25154;-33.684;151.102;2022-08-19T01:22:55;2.05;;;0.73;;
39452;SDS011;25154;-33.684;151.102;2022-08-19T01:27:59;1.13;;;0.60;;
39452;SDS011;25154;-33.684;151.102;2022-08-19T01:33:01;2.75;;;0.82;;
39452;SDS011;25154;-33.684;151.102;2022-08-19T01:38:07;1.63;;;0.80;;
39452;SDS011;25154;-33.684;151.102;2022-08-19T01:43:20;1.45;;;0.68;;
39452;SDS011;25154;-33.684;151.102;2022-08-19T01:48:22;0.95;;;0.60;;
39452;SDS011;25154;-33.684;151.102;2022-08-19T01:53:24;0.93;;;0.50;;
39452;SDS011;25154;-33.684;151.102;2022-08-19T01:58:40;1.05;;;0.60;;
39452;SDS011;25154;-33.684;151.102;2022-08-19T02:03:49;1.20;;;0.60;;
39452;SDS011;25154;-33.684;151.102;2022-08-19T02:08:53;1.83;;;0.70;;
39452;SDS011;25154;-33.684;151.102;2022-08-19T02:13:56;2.17;;;0.80;;
39452;SDS011;25154;-33.684;151.102;2022-08-19T02:18:59;2.33;;;1.05;;
39452;SDS011;25154;-33.684;151.102;2022-08-19T02:24:02;1.35;;;0.77;;
39452;SDS011;25154;-33.684;151.102;2022-08-19T02:29:05;0.95;;;0.60;;
39452;SDS011;25154;-33.684;151.102;2022-08-19T02:34:07;1.15;;;0.60;;
39452;SDS011;25154;-33.684;151.102;2022-08-19T02:39:09;2.60;;;0.98;;
39452;SDS011;25154;-33.684;151.102;2022-08-19T02:44:12;1.23;;;0.73;;
39452;SDS011;25154;-33.684;151.102;2022-08-19T02:49:14;1.45;;;0.43;;
39452;SDS011;25154;-33.684;151.102;2022-08-19T02:54:16;1.92;;;0.50;;
39452;SDS011;25154;-33.684;151.102;2022-08-19T02:59:19;4.30;;;0.60;;
39452;SDS011;25154;-33.684;151.102;2022-08-19T03:04:22;1.45;;;0.73;;
39452;SDS011;25154;-33.684;151.102;2022-08-19T03:09:24;1.23;;;0.70;;
39452;SDS011;25154;-33.684;151.102;2022-08-19T03:14:29;0.73;;;0.55;;
39452;SDS011;25154;-33.684;151.102;2022-08-19T03:19:32;0.50;;;0.50;;
39452;SDS011;25154;-33.684;151.102;2022-08-19T03:24:35;0.52;;;0.47;;
39452;SDS011;25154;-33.684;151.102;2022-08-19T03:29:38;1.70;;;0.60;;
39452;SDS011;25154;-33.684;151.102;2022-08-19T03:34:40;0.75;;;0.55;;
39452;SDS011;25154;-33.684;151.102;2022-08-19T03:39:43;1.45;;;0.63;;
39452;SDS011;25154;-33.684;151.102;2022-08-19T03:44:45;3.17;;;0.80;;
39452;SDS011;25154;-33.684;151.102;2022-08-19T03:49:47;2.20;;;0.73;;
39452;SDS011;25154;-33.684;151.102;2022-08-19T03:54:50;0.93;;;0.60;;
39452;SDS011;25154;-33.684;151.102;2022-08-19T03:59:52;0.60;;;0.60;;
39452;SDS011;25154;-33.684;151.102;2022-08-19T04:04:56;2.00;;;0.50;;
39452;SDS011;25154;-33.684;151.102;2022-08-19T04:10:00;0.43;;;0.43;;
39452;SDS011;25154;-33.684;151.102;2022-08-19T04:15:04;0.38;;;0.38;;
39452;SDS011;25154;-33.684;151.102;2022-08-19T04:20:09;0.45;;;0.40;;
39452;SDS011;25154;-33.684;151.102;2022-08-19T04:25:12;0.75;;;0.50;;
39452;SDS011;25154;-33.684;151.102;2022-08-19T04:30:16;0.65;;;0.50;;
39452;SDS011;25154;-33.684;151.102;2022-08-19T04:35:19;0.95;;;0.60;;
39452;SDS011;25154;-33.684;151.102;2022-08-19T04:40:23;0.68;;;0.40;;
39452;SDS011;25154;-33.684;151.102;2022-08-19T04:45:45;0.32;;;0.32;;
39452;SDS011;25154;-33.684;151.102;2022-08-19T04:50:48;0.60;;;0.40;;
39452;SDS011;25154;-33.684;151.102;2022-08-19T04:55:58;1.50;;;0.50;;
39452;SDS011;25154;-33.684;151.102;2022-08-19T05:01:02;2.70;;;0.60;;
39452;SDS011;25154;-33.684;151.102;2022-08-19T05:06:08;1.08;;;0.55;;
39452;SDS011;25154;-33.684;151.102;2022-08-19T05:11:13;1.77;;;0.73;;
39452;SDS011;25154;-33.684;151.102;2022-08-19T05:16:17;2.47;;;1.15;;
39452;SDS011;25154;-33.684;151.102;2022-08-19T05:21:21;4.20;;;1.60;;
39452;SDS011;25154;-33.684;151.102;2022-08-19T05:26:43;1.92;;;1.17;;
39452;SDS011;25154;-33.684;151.102;2022-08-19T05:31:48;1.30;;;0.60;;
39452;SDS011;25154;-33.684;151.102;2022-08-19T05:36:55;1.13;;;0.60;;
39452;SDS011;25154;-33.684;151.102;2022-08-19T05:42:04;1.35;;;0.75;;
39452;SDS011;25154;-33.684;151.102;2022-08-19T05:47:07;1.35;;;0.70;;
39452;SDS011;25154;-33.684;151.102;2022-08-19T05:52:12;1.88;;;0.70;;
39452;SDS011;25154;-33.684;151.102;2022-08-19T05:57:19;1.40;;;0.65;;
39452;SDS011;25154;-33.684;151.102;2022-08-19T06:02:21;2.33;;;0.90;;
39452;SDS011;25154;-33.684;151.102;2022-08-19T06:07:24;1.13;;;0.68;;
39452;SDS011;25154;-33.684;151.102;2022-08-19T06:12:36;2.05;;;0.80;;
39452;SDS011;25154;-33.684;151.102;2022-08-19T06:17:38;1.13;;;0.50;;
39452;SDS011;25154;-33.684;151.102;2022-08-19T06:22:46;0.77;;;0.55;;
39452;SDS011;25154;-33.684;151.102;2022-08-19T06:27:52;2.10;;;0.73;;
39452;SDS011;25154;-33.684;151.102;2022-08-19T06:32:55;0.65;;;0.50;;
39452;SDS011;25154;-33.684;151.102;2022-08-19T06:37:57;1.15;;;0.40;;
39452;SDS011;25154;-33.684;151.102;2022-08-19T06:43:03;0.70;;;0.43;;
39452;SDS011;25154;-33.684;151.102;2022-08-19T06:48:06;0.30;;;0.30;;
39452;SDS011;25154;-33.684;151.102;2022-08-19T06:53:08;2.72;;;0.50;;
39452;SDS011;25154;-33.684;151.102;2022-08-19T06:58:10;1.83;;;0.70;;
39452;SDS011;25154;-33.684;151.102;2022-08-19T07:03:13;0.60;;;0.60;;
39452;SDS011;25154;-33.684;151.102;2022-08-19T07:08:21;0.63;;;0.50;;
39452;SDS011;25154;-33.684;151.102;2022-08-19T07:13:24;0.30;;;0.30;;
39452;SDS011;25154;-33.684;151.102;2022-08-19T07:18:30;0.40;;;0.40;;
39452;SDS011;25154;-33.684;151.102;2022-08-19T07:23:33;8.32;;;1.40;;
39452;SDS011;25154;-33.684;151.102;2022-08-19T07:28:35;2.58;;;1.00;;
39452;SDS011;25154;-33.684;151.102;2022-08-19T07:33:41;3.53;;;2.00;;
39452;SDS011;25154;-33.684;151.102;2022-08-19T07:38:48;2.75;;;1.20;;
39452;SDS011;25154;-33.684;151.102;2022-08-19T07:43:51;2.03;;;0.80;;
39452;SDS011;25154;-33.684;151.102;2022-08-19T07:48:54;0.80;;;0.70;;
39452;SDS011;25154;-33.684;151.102;2022-08-19T07:53:59;4.22;;;1.00;;
39452;SDS011;25154;-33.684;151.102;2022-08-19T08:04:12;2.28;;;0.93;;
39452;SDS011;25154;-33.684;151.102;2022-08-19T08:09:34;2.47;;;1.20;;
39452;SDS011;25154;-33.684;151.102;2022-08-19T08:14:42;1.83;;;0.93;;
39452;SDS011;25154;-33.684;151.102;2022-08-19T08:19:50;2.85;;;1.05;;
39452;SDS011;25154;-33.684;151.102;2022-08-19T08:24:52;6.57;;;2.03;;
39452;SDS011;25154;-33.684;151.102;2022-08-19T08:29:59;2.40;;;1.05;;
39452;SDS011;25154;-33.684;151.102;2022-08-19T08:35:06;3.80;;;0.75;;
39452;SDS011;25154;-33.684;151.102;2022-08-19T08:40:17;3.67;;;1.05;;
39452;SDS011;25154;-33.684;151.102;2022-08-19T08:45:46;3.50;;;1.50;;
39452;SDS011;25154;-33.684;151.102;2022-08-19T08:50:56;3.58;;;1.15;;
39452;SDS011;25154;-33.684;151.102;2022-08-19T08:56:01;3.85;;;1.33;;
39452;SDS011;25154;-33.684;151.102;2022-08-19T09:01:10;4.55;;;1.40;;
39452;SDS011;25154;-33.684;151.102;2022-08-19T09:16:58;6.97;;;1.80;;
39452;SDS011;25154;-33.684;151.102;2022-08-19T09:22:23;6.40;;;2.92;;
39452;SDS011;25154;-33.684;151.102;2022-08-19T09:27:30;16.23;;;7.20;;
39452;SDS011;25154;-33.684;151.102;2022-08-19T09:32:38;7.93;;;2.80;;
39452;SDS011;25154;-33.684;151.102;2022-08-19T09:37:43;5.88;;;2.00;;
39452;SDS011;25154;-33.684;151.102;2022-08-19T09:42:46;4.68;;;1.70;;
39452;SDS011;25154;-33.684;151.102;2022-08-19T09:47:50;4.15;;;1.90;;
39452;SDS011;25154;-33.684;151.102;2022-08-19T09:52:54;5.00;;;2.00;;
39452;SDS011;25154;-33.684;151.102;2022-08-19T09:57:58;3.47;;;1.45;;
39452;SDS011;25154;-33.684;151.102;2022-08-19T10:03:02;4.95;;;1.30;;
39452;SDS011;25154;-33.684;151.102;2022-08-19T10:08:05;4.40;;;1.38;;
39452;SDS011;25154;-33.684;151.102;2022-08-19T10:13:08;4.30;;;1.60;;
39452;SDS011;25154;-33.684;151.102;2022-08-19T10:18:10;4.45;;;1.40;;
39452;SDS011;25154;-33.684;151.102;2022-08-19T10:23:14;3.22;;;1.25;;
39452;SDS011;25154;-33.684;151.102;2022-08-19T10:28:17;3.65;;;1.50;;
39452;SDS011;25154;-33.684;151.102;2022-08-19T10:33:20;5.22;;;1.92;;
39452;SDS011;25154;-33.684;151.102;2022-08-19T10:38:23;5.68;;;1.95;;
39452;SDS011;25154;-33.684;151.102;2022-08-19T10:43:26;5.45;;;1.80;;
39452;SDS011;25154;-33.684;151.102;2022-08-19T10:48:28;3.50;;;1.33;;
39452;SDS011;25154;-33.684;151.102;2022-08-19T10:53:31;4.45;;;1.60;;
39452;SDS011;25154;-33.684;151.102;2022-08-19T10:58:34;3.83;;;1.40;;
39452;SDS011;25154;-33.684;151.102;2022-08-19T11:03:37;3.17;;;1.23;;
39452;SDS011;25154;-33.684;151.102;2022-08-19T11:08:39;3.50;;;1.42;;
39452;SDS011;25154;-33.684;151.102;2022-08-19T11:13:45;5.15;;;1.70;;
39452;SDS011;25154;-33.684;151.102;2022-08-19T11:18:52;7.30;;;2.15;;
39452;SDS011;25154;-33.684;151.102;2022-08-19T11:29:02;10.90;;;2.72;;
39452;SDS011;25154;-33.684;151.102;2022-08-19T11:34:07;5.35;;;2.72;;
39452;SDS011;25154;-33.684;151.102;2022-08-19T11:39:13;9.82;;;2.83;;
39452;SDS011;25154;-33.684;151.102;2022-08-19T11:44:17;6.82;;;2.42;;
39452;SDS011;25154;-33.684;151.102;2022-08-19T11:49:23;10.02;;;3.83;;
39452;SDS011;25154;-33.684;151.102;2022-08-19T11:54:25;12.38;;;5.47;;
39452;SDS011;25154;-33.684;151.102;2022-08-19T11:59:28;12.13;;;5.13;;
39452;SDS011;25154;-33.684;151.102;2022-08-19T12:04:31;8.10;;;3.10;;
39452;SDS011;25154;-33.684;151.102;2022-08-19T12:09:38;9.05;;;3.70;;
39452;SDS011;25154;-33.684;151.102;2022-08-19T12:14:41;10.65;;;4.07;;
39452;SDS011;25154;-33.684;151.102;2022-08-19T12:19:45;8.00;;;3.00;;
39452;SDS011;25154;-33.684;151.102;2022-08-19T12:24:47;6.53;;;2.22;;
39452;SDS011;25154;-33.684;151.102;2022-08-19T12:29:52;6.53;;;2.28;;
39452;SDS011;25154;-33.684;151.102;2022-08-19T12:34:55;8.43;;;1.85;;
39452;SDS011;25154;-33.684;151.102;2022-08-19T12:40:02;10.43;;;3.40;;
39452;SDS011;25154;-33.684;151.102;2022-08-19T12:45:08;5.53;;;2.50;;
39452;SDS011;25154;-33.684;151.102;2022-08-19T12:50:15;6.25;;;2.78;;
39452;SDS011;25154;-33.684;151.102;2022-08-19T12:55:18;5.80;;;2.78;;
39452;SDS011;25154;-33.684;151.102;2022-08-19T13:00:21;6.88;;;2.22;;
39452;SDS011;25154;-33.684;151.102;2022-08-19T13:05:26;6.18;;;3.42;;
39452;SDS011;25154;-33.684;151.102;2022-08-19T13:10:32;12.60;;;2.72;;
39452;SDS011;25154;-33.684;151.102;2022-08-19T13:15:37;8.38;;;2.80;;
39452;SDS011;25154;-33.684;151.102;2022-08-19T13:20:41;5.45;;;2.22;;
39452;SDS011;25154;-33.684;151.102;2022-08-19T13:25:44;4.07;;;2.03;;
39452;SDS011;25154;-33.684;151.102;2022-08-19T13:30:56;5.30;;;1.95;;
39452;SDS011;25154;-33.684;151.102;2022-08-19T13:36:18;4.90;;;2.28;;
39452;SDS011;25154;-33.684;151.102;2022-08-19T13:41:21;6.10;;;2.42;;
39452;SDS011;25154;-33.684;151.102;2022-08-19T13:46:24;7.47;;;2.33;;
39452;SDS011;25154;-33.684;151.102;2022-08-19T13:51:28;7.30;;;1.60;;
39452;SDS011;25154;-33.684;151.102;2022-08-19T13:56:33;4.35;;;1.80;;
39452;SDS011;25154;-33.684;151.102;2022-08-19T14:01:40;5.40;;;1.88;;
39452;SDS011;25154;-33.684;151.102;2022-08-19T14:06:43;7.95;;;1.50;;
39452;SDS011;25154;-33.684;151.102;2022-08-19T14:11:46;6.07;;;1.90;;
39452;SDS011;25154;-33.684;151.102;2022-08-19T14:16:51;5.78;;;1.45;;
39452;SDS011;25154;-33.684;151.102;2022-08-19T14:21:55;4.00;;;1.50;;
39452;SDS011;25154;-33.684;151.102;2022-08-19T14:26:58;4.65;;;1.90;;
39452;SDS011;25154;-33.684;151.102;2022-08-19T14:32:01;5.15;;;2.20;;
39452;SDS011;25154;-33.684;151.102;2022-08-19T14:37:04;4.68;;;1.65;;
39452;SDS011;25154;-33.684;151.102;2022-08-19T14:42:08;3.70;;;1.55;;
39452;SDS011;25154;-33.684;151.102;2022-08-19T14:47:15;7.10;;;1.40;;
39452;SDS011;25154;-33.684;151.102;2022-08-19T14:52:18;3.60;;;1.33;;
39452;SDS011;25154;-33.684;151.102;2022-08-19T14:57:24;6.53;;;1.50;;
39452;SDS011;25154;-33.684;151.102;2022-08-19T15:02:27;5.07;;;1.23;;
39452;SDS011;25154;-33.684;151.102;2022-08-19T15:07:29;3.00;;;1.27;;
39452;SDS011;25154;-33.684;151.102;2022-08-19T15:12:34;5.72;;;1.60;;
39452;SDS011;25154;-33.684;151.102;2022-08-19T15:17:38;7.45;;;1.40;;
39452;SDS011;25154;-33.684;151.102;2022-08-19T15:22:42;3.60;;;1.20;;
39452;SDS011;25154;-33.684;151.102;2022-08-19T15:27:44;5.43;;;1.50;;
39452;SDS011;25154;-33.684;151.102;2022-08-19T15:32:48;3.97;;;1.60;;
39452;SDS011;25154;-33.684;151.102;2022-08-19T15:37:53;4.15;;;1.30;;
39452;SDS011;25154;-33.684;151.102;2022-08-19T15:42:59;6.22;;;2.08;;
39452;SDS011;25154;-33.684;151.102;2022-08-19T15:48:03;5.53;;;1.55;;
39452;SDS011;25154;-33.684;151.102;2022-08-19T15:53:08;4.30;;;1.58;;
39452;SDS011;25154;-33.684;151.102;2022-08-19T15:58:12;10.93;;;1.95;;
39452;SDS011;25154;-33.684;151.102;2022-08-19T16:03:33;4.20;;;1.55;;
39452;SDS011;25154;-33.684;151.102;2022-08-19T16:08:55;6.53;;;1.50;;
39452;SDS011;25154;-33.684;151.102;2022-08-19T16:19:04;4.13;;;1.27;;
39452;SDS011;25154;-33.684;151.102;2022-08-19T16:24:09;5.20;;;1.13;;
39452;SDS011;25154;-33.684;151.102;2022-08-19T16:29:14;5.85;;;1.10;;
39452;SDS011;25154;-33.684;151.102;2022-08-19T16:34:18;3.67;;;1.20;;
39452;SDS011;25154;-33.684;151.102;2022-08-19T16:39:22;3.95;;;1.30;;
39452;SDS011;25154;-33.684;151.102;2022-08-19T16:44:25;4.22;;;1.17;;
39452;SDS011;25154;-33.684;151.102;2022-08-19T16:49:28;4.70;;;1.30;;
39452;SDS011;25154;-33.684;151.102;2022-08-19T16:54:37;4.80;;;1.10;;
39452;SDS011;25154;-33.684;151.102;2022-08-19T16:59:40;1.60;;;0.98;;
39452;SDS011;25154;-33.684;151.102;2022-08-19T17:04:44;3.50;;;0.95;;
39452;SDS011;25154;-33.684;151.102;2022-08-19T17:09:49;3.10;;;1.13;;
39452;SDS011;25154;-33.684;151.102;2022-08-19T17:14:52;5.90;;;1.13;;
39452;SDS011;25154;-33.684;151.102;2022-08-19T17:19:56;4.45;;;1.23;;
39452;SDS011;25154;-33.684;151.102;2022-08-19T17:25:00;2.70;;;1.20;;
39452;SDS011;25154;-33.684;151.102;2022-08-19T17:30:04;3.90;;;1.10;;
39452;SDS011;25154;-33.684;151.102;2022-08-19T17:35:07;2.35;;;0.90;;
39452;SDS011;25154;-33.684;151.102;2022-08-19T17:40:10;1.88;;;0.80;;
39452;SDS011;25154;-33.684;151.102;2022-08-19T17:45:13;6.07;;;1.10;;
39452;SDS011;25154;-33.684;151.102;2022-08-19T17:50:17;3.47;;;1.10;;
39452;SDS011;25154;-33.684;151.102;2022-08-19T17:55:20;3.10;;;1.10;;
39452;SDS011;25154;-33.684;151.102;2022-08-19T18:00:24;4.10;;;1.00;;
39452;SDS011;25154;-33.684;151.102;2022-08-19T18:05:29;6.10;;;0.80;;
39452;SDS011;25154;-33.684;151.102;2022-08-19T18:10:35;4.30;;;1.15;;
39452;SDS011;25154;-33.684;151.102;2022-08-19T18:15:38;2.20;;;0.80;;
39452;SDS011;25154;-33.684;151.102;2022-08-19T18:20:42;2.45;;;0.90;;
39452;SDS011;25154;-33.684;151.102;2022-08-19T18:25:44;1.67;;;0.75;;
39452;SDS011;25154;-33.684;151.102;2022-08-19T18:30:47;4.60;;;0.90;;
39452;SDS011;25154;-33.684;151.102;2022-08-19T18:35:50;5.53;;;0.98;;
39452;SDS011;25154;-33.684;151.102;2022-08-19T18:40:53;2.75;;;0.90;;
39452;SDS011;25154;-33.684;151.102;2022-08-19T18:46:15;2.33;;;1.35;;
39452;SDS011;25154;-33.684;151.102;2022-08-19T18:51:36;3.97;;;0.90;;
39452;SDS011;25154;-33.684;151.102;2022-08-19T18:56:38;7.65;;;1.35;;
39452;SDS011;25154;-33.684;151.102;2022-08-19T19:01:45;5.20;;;0.90;;
39452;SDS011;25154;-33.684;151.102;2022-08-19T19:06:50;4.80;;;1.05;;
39452;SDS011;25154;-33.684;151.102;2022-08-19T19:11:55;3.33;;;0.80;;
39452;SDS011;25154;-33.684;151.102;2022-08-19T19:17:01;3.53;;;0.90;;
39452;SDS011;25154;-33.684;151.102;2022-08-19T19:22:05;1.67;;;0.70;;
39452;SDS011;25154;-33.684;151.102;2022-08-19T19:27:13;2.78;;;0.90;;
39452;SDS011;25154;-33.684;151.102;2022-08-19T19:32:25;5.65;;;0.90;;
39452;SDS011;25154;-33.684;151.102;2022-08-19T19:37:33;1.45;;;0.70;;
39452;SDS011;25154;-33.684;151.102;2022-08-19T19:42:38;5.20;;;1.20;;
39452;SDS011;25154;-33.684;151.102;2022-08-19T19:47:41;5.88;;;0.80;;
39452;SDS011;25154;-33.684;151.102;2022-08-19T19:52:44;3.67;;;0.80;;
39452;SDS011;25154;-33.684;151.102;2022-08-19T19:57:47;2.05;;;0.90;;
39452;SDS011;25154;-33.684;151.102;2022-08-19T20:02:50;2.42;;;0.70;;
39452;SDS011;25154;-33.684;151.102;2022-08-19T20:07:55;6.40;;;1.30;;
39452;SDS011;25154;-33.684;151.102;2022-08-19T20:13:16;1.70;;;0.60;;
39452;SDS011;25154;-33.684;151.102;2022-08-19T20:18:19;12.05;;;1.58;;
39452;SDS011;25154;-33.684;151.102;2022-08-19T20:23:23;2.75;;;0.90;;
39452;SDS011;25154;-33.684;151.102;2022-08-19T20:28:26;3.33;;;1.00;;
39452;SDS011;25154;-33.684;151.102;2022-08-19T20:33:29;2.17;;;0.80;;
39452;SDS011;25154;-33.684;151.102;2022-08-19T20:38:32;4.07;;;0.85;;
39452;SDS011;25154;-33.684;151.102;2022-08-19T20:43:35;3.10;;;0.82;;
39452;SDS011;25154;-33.684;151.102;2022-08-19T20:48:39;3.97;;;0.98;;
39452;SDS011;25154;-33.684;151.102;2022-08-19T20:53:42;6.30;;;1.30;;
39452;SDS011;25154;-33.684;151.102;2022-08-19T20:58:45;1.98;;;0.85;;
39452;SDS011;25154;-33.684;151.102;2022-08-19T21:03:48;4.63;;;1.05;;
39452;SDS011;25154;-33.684;151.102;2022-08-19T21:08:51;3.67;;;0.80;;
39452;SDS011;25154;-33.684;151.102;2022-08-19T21:13:54;4.32;;;0.98;;
39452;SDS011;25154;-33.684;151.102;2022-08-19T21:18:57;5.93;;;1.00;;
39452;SDS011;25154;-33.684;151.102;2022-08-19T21:24:01;4.97;;;1.27;;
39452;SDS011;25154;-33.684;151.102;2022-08-19T21:29:04;6.82;;;1.30;;
39452;SDS011;25154;-33.684;151.102;2022-08-19T21:34:07;4.47;;;1.30;;
39452;SDS011;25154;-33.684;151.102;2022-08-19T21:39:10;5.68;;;1.88;;
39452;SDS011;25154;-33.684;151.102;2022-08-19T21:44:13;4.03;;;1.17;;
39452;SDS011;25154;-33.684;151.102;2022-08-19T21:49:16;5.18;;;1.40;;
39452;SDS011;25154;-33.684;151.102;2022-08-19T21:54:19;3.03;;;1.00;;
39452;SDS011;25154;-33.684;151.102;2022-08-19T21:59:22;3.53;;;0.98;;
39452;SDS011;25154;-33.684;151.102;2022-08-19T22:04:24;3.90;;;1.00;;
39452;SDS011;25154;-33.684;151.102;2022-08-19T22:09:28;4.40;;;1.20;;
39452;SDS011;25154;-33.684;151.102;2022-08-19T22:14:30;3.92;;;1.17;;
39452;SDS011;25154;-33.684;151.102;2022-08-19T22:19:33;3.90;;;1.10;;
39452;SDS011;25154;-33.684;151.102;2022-08-19T22:24:36;7.63;;;1.13;;
39452;SDS011;25154;-33.684;151.102;2022-08-19T22:29:42;6.68;;;0.82;;
39452;SDS011;25154;-33.684;151.102;2022-08-19T22:34:45;5.53;;;1.23;;
39452;SDS011;25154;-33.684;151.102;2022-08-19T22:39:47;3.85;;;1.60;;
39452;SDS011;25154;-33.684;151.102;2022-08-19T22:44:50;5.05;;;1.02;;
39452;SDS011;25154;-33.684;151.102;2022-08-19T22:49:55;5.28;;;1.10;;
39452;SDS011;25154;-33.684;151.102;2022-08-19T22:55:03;5.70;;;1.00;;
39452;SDS011;25154;-33.684;151.102;2022-08-19T23:00:07;3.88;;;0.80;;
39452;SDS011;25154;-33.684;151.102;2022-08-19T23:05:12;3.08;;;0.85;;
39452;SDS011;25154;-33.684;151.102;2022-08-19T23:10:18;2.95;;;0.77;;
39452;SDS011;25154;-33.684;151.102;2022-08-19T23:15:23;2.10;;;0.90;;
39452;SDS011;25154;-33.684;151.102;2022-08-19T23:20:29;3.47;;;0.70;;
39452;SDS011;25154;-33.684;151.102;2022-08-19T23:25:34;3.58;;;0.80;;
39452;SDS011;25154;-33.684;151.102;2022-08-19T23:30:39;2.25;;;1.00;;
39452;SDS011;25154;-33.684;151.102;2022-08-19T23:35:43;5.20;;;1.23;;
39452;SDS011;25154;-33.684;151.102;2022-08-19T23:40:46;2.42;;;0.80;;
39452;SDS011;25154;-33.684;151.102;2022-08-19T23:45:50;4.25;;;0.85;;
39452;SDS011;25154;-33.684;151.102;2022-08-19T23:50:54;3.90;;;0.88;;
39452;SDS011;25154;-33.684;151.102;2022-08-19T23:55:58;4.00;;;1.10;;
